createdAt,value
2022-10-20T00:01:23.497Z,2.30
2022-10-20T00:03:51.229Z,2.63
2022-10-20T00:06:25.193Z,2.17
2022-10-20T00:11:23.233Z,2.03
2022-10-20T00:13:53.227Z,2.38
2022-10-20T00:16:22.410Z,2.42
2022-10-20T00:18:49.442Z,2.20
2022-10-20T00:21:22.988Z,1.98
2022-10-20T00:23:50.206Z,1.90
2022-10-20T00:26:26.489Z,2.13
2022-10-20T00:28:54.749Z,2.60
2022-10-20T00:31:24.325Z,2.72
2022-10-20T00:33:51.733Z,2.05
2022-10-20T00:36:20.930Z,2.20
2022-10-20T00:38:48.374Z,2.22
2022-10-20T00:41:18.872Z,2.03
2022-10-20T00:43:51.718Z,2.35
2022-10-20T00:46:33.360Z,2.00
2022-10-20T00:49:11.313Z,2.30
2022-10-20T00:51:38.429Z,2.30
2022-10-20T00:54:15.822Z,2.03
2022-10-20T00:56:47.852Z,2.53
2022-10-20T00:59:19.625Z,2.10
2022-10-20T01:01:46.660Z,2.28
2022-10-20T01:04:14.936Z,2.30
2022-10-20T01:06:41.646Z,2.40
2022-10-20T01:09:09.165Z,2.28
2022-10-20T01:12:01.552Z,2.25
2022-10-20T01:15:08.247Z,2.17
2022-10-20T01:18:05.740Z,2.00
2022-10-20T01:20:51.675Z,2.08
2022-10-20T01:23:49.721Z,2.10
2022-10-20T01:27:00.090Z,1.98
2022-10-20T01:29:43.011Z,2.22
2022-10-20T01:32:51.346Z,1.80
2022-10-20T01:35:42.410Z,2.00
2022-10-20T01:38:27.834Z,1.92
2022-10-20T01:41:14.371Z,2.08
2022-10-20T01:43:45.862Z,2.20
2022-10-20T01:46:17.085Z,1.90
2022-10-20T01:48:46.193Z,2.28
2022-10-20T01:51:13.165Z,2.30
2022-10-20T01:53:40.105Z,1.90
2022-10-20T01:56:16.305Z,2.55
2022-10-20T01:59:20.172Z,2.10
2022-10-20T02:02:22.618Z,2.45
2022-10-20T02:05:29.014Z,2.00
2022-10-20T02:08:11.504Z,1.90
2022-10-20T02:11:04.490Z,2.15
2022-10-20T02:13:35.916Z,2.15
2022-10-20T02:16:12.679Z,2.00
2022-10-20T02:18:43.903Z,2.78
2022-10-20T02:21:11.509Z,2.22
2022-10-20T02:23:42.233Z,2.25
2022-10-20T02:26:16.078Z,1.85
2022-10-20T02:28:49.681Z,2.00
2022-10-20T02:31:18.825Z,2.10
2022-10-20T02:33:47.378Z,2.30
2022-10-20T02:36:19.826Z,1.98
2022-10-20T02:38:47.605Z,2.20
2022-10-20T02:41:14.561Z,2.22
2022-10-20T02:43:41.325Z,2.00
2022-10-20T02:46:08.319Z,2.10
2022-10-20T02:48:35.543Z,2.15
2022-10-20T02:51:02.315Z,1.92
2022-10-20T02:53:29.029Z,1.75
2022-10-20T02:55:55.802Z,2.20
2022-10-20T02:58:22.635Z,2.20
2022-10-20T03:00:50.837Z,1.90
2022-10-20T03:03:19.088Z,2.20
2022-10-20T03:05:47.540Z,2.40
2022-10-20T03:08:15.449Z,2.40
2022-10-20T03:10:42.796Z,2.22
2022-10-20T03:13:10.855Z,2.42
2022-10-20T03:15:38.286Z,2.10
2022-10-20T03:18:05.084Z,2.33
2022-10-20T03:20:33.171Z,1.75
2022-10-20T03:23:00.193Z,2.30
2022-10-20T03:25:26.936Z,2.13
2022-10-20T03:27:53.674Z,2.00
2022-10-20T03:30:20.414Z,2.08
2022-10-20T03:32:47.155Z,2.20
2022-10-20T03:35:13.950Z,2.15
2022-10-20T03:37:40.878Z,2.40
2022-10-20T03:40:08.643Z,2.42
2022-10-20T03:42:36.573Z,1.83
2022-10-20T03:45:04.335Z,2.08
2022-10-20T03:47:31.191Z,2.30
2022-10-20T03:49:58.024Z,1.90
2022-10-20T03:52:25.215Z,1.95
2022-10-20T03:54:52.001Z,2.50
2022-10-20T03:57:20.815Z,2.00
2022-10-20T03:59:47.604Z,2.63
2022-10-20T04:02:37.171Z,2.20
2022-10-20T04:05:05.225Z,2.08
2022-10-20T04:07:32.212Z,2.25
2022-10-20T04:10:02.098Z,2.25
2022-10-20T04:12:28.977Z,2.70
2022-10-20T04:14:55.993Z,2.78
2022-10-20T04:17:22.814Z,2.33
2022-10-20T04:19:49.659Z,2.00
2022-10-20T04:22:16.965Z,2.13
2022-10-20T04:24:43.727Z,2.10
2022-10-20T04:27:10.550Z,2.50
2022-10-20T04:29:37.614Z,2.10
2022-10-20T04:32:04.796Z,2.63
2022-10-20T04:34:31.506Z,2.60
2022-10-20T04:36:58.506Z,2.38
2022-10-20T04:39:25.551Z,2.80
2022-10-20T04:41:52.341Z,2.67
2022-10-20T04:44:19.294Z,2.80
2022-10-20T04:46:46.100Z,2.65
2022-10-20T04:49:13.089Z,2.58
2022-10-20T04:51:39.844Z,2.45
2022-10-20T04:54:06.598Z,2.65
2022-10-20T04:56:33.336Z,2.70
2022-10-20T04:59:00.268Z,2.80
2022-10-20T05:01:30.066Z,2.30
2022-10-20T05:03:57.481Z,2.53
2022-10-20T05:06:28.562Z,2.20
2022-10-20T05:09:03.070Z,2.90
2022-10-20T05:11:31.572Z,2.90
2022-10-20T05:13:58.297Z,2.60
2022-10-20T05:16:25.319Z,2.97
2022-10-20T05:18:52.328Z,3.30
2022-10-20T05:21:23.659Z,3.38
2022-10-20T05:23:57.430Z,2.97
2022-10-20T05:26:25.285Z,2.78
2022-10-20T05:28:52.873Z,3.53
2022-10-20T05:31:22.631Z,3.17
2022-10-20T05:33:53.649Z,3.22
2022-10-20T05:36:24.505Z,3.00
2022-10-20T05:38:54.031Z,3.40
2022-10-20T05:41:32.260Z,3.28
2022-10-20T05:44:05.051Z,3.20
2022-10-20T05:46:37.932Z,3.53
2022-10-20T05:49:04.792Z,3.55
2022-10-20T05:51:35.594Z,4.00
2022-10-20T05:54:03.745Z,3.65
2022-10-20T05:56:31.622Z,3.75
2022-10-20T05:58:58.578Z,3.50
2022-10-20T06:01:39.385Z,3.55
2022-10-20T06:04:08.645Z,3.53
2022-10-20T06:06:36.176Z,3.92
2022-10-20T06:09:07.980Z,3.60
2022-10-20T06:11:39.213Z,4.00
2022-10-20T06:14:08.561Z,3.92
2022-10-20T06:16:35.852Z,3.63
2022-10-20T06:19:03.406Z,4.60
2022-10-20T06:21:33.543Z,4.13
2022-10-20T06:24:04.659Z,4.35
2022-10-20T06:26:33.782Z,4.13
2022-10-20T06:29:04.276Z,4.53
2022-10-20T06:31:41.017Z,4.25
2022-10-20T06:34:21.261Z,4.05
2022-10-20T06:36:49.550Z,4.60
2022-10-20T06:39:20.711Z,3.80
2022-10-20T06:41:54.003Z,3.50
2022-10-20T06:44:23.979Z,3.90
2022-10-20T06:46:54.790Z,4.38
2022-10-20T06:49:22.231Z,4.25
2022-10-20T06:51:49.558Z,4.03
2022-10-20T06:54:17.479Z,4.32
2022-10-20T06:56:44.437Z,4.53
2022-10-20T06:59:11.405Z,4.50
2022-10-20T07:01:39.913Z,4.63
2022-10-20T07:04:13.221Z,4.40
2022-10-20T07:06:42.876Z,4.43
2022-10-20T07:09:18.475Z,4.32
2022-10-20T07:11:46.366Z,3.90
2022-10-20T07:14:14.473Z,5.18
2022-10-20T07:16:41.513Z,4.72
2022-10-20T07:19:08.251Z,4.57
2022-10-20T07:21:39.142Z,4.65
2022-10-20T07:24:07.853Z,4.65
2022-10-20T07:26:38.706Z,4.15
2022-10-20T07:29:05.759Z,4.40
2022-10-20T07:31:40.015Z,4.65
2022-10-20T07:34:24.407Z,4.43
2022-10-20T07:36:53.691Z,4.95
2022-10-20T07:39:20.741Z,4.45
2022-10-20T07:41:48.308Z,4.57
2022-10-20T07:44:16.131Z,4.93
2022-10-20T07:46:42.967Z,4.43
2022-10-20T07:51:57.057Z,4.95
2022-10-20T07:54:23.794Z,5.13
2022-10-20T07:56:50.685Z,3.95
2022-10-20T07:59:18.588Z,4.07
2022-10-20T08:01:46.202Z,5.45
2022-10-20T08:04:13.018Z,4.78
2022-10-20T08:06:39.808Z,4.18
2022-10-20T08:09:07.303Z,4.88
2022-10-20T08:11:35.209Z,4.68
2022-10-20T08:14:02.078Z,4.15
2022-10-20T08:16:36.401Z,4.35
2022-10-20T08:19:08.986Z,5.45
2022-10-20T08:21:35.740Z,4.53
2022-10-20T08:24:02.844Z,4.13
2022-10-20T08:26:29.789Z,4.43
2022-10-20T08:28:56.575Z,4.57
2022-10-20T08:31:23.674Z,4.57
2022-10-20T08:33:52.943Z,4.63
2022-10-20T08:36:21.237Z,4.25
2022-10-20T08:38:49.018Z,3.72
2022-10-20T08:41:34.479Z,4.32
2022-10-20T08:44:05.991Z,3.92
2022-10-20T08:46:40.468Z,3.45
2022-10-20T08:49:20.032Z,3.80
2022-10-20T08:51:46.975Z,3.58
2022-10-20T08:54:16.295Z,3.55
2022-10-20T08:56:44.354Z,3.45
2022-10-20T08:59:39.851Z,4.00
2022-10-20T09:02:17.645Z,3.60
2022-10-20T09:04:58.454Z,3.85
2022-10-20T09:07:38.355Z,4.32
2022-10-20T09:10:41.267Z,3.67
2022-10-20T09:13:23.555Z,3.78
2022-10-20T09:15:55.855Z,4.22
2022-10-20T09:18:22.847Z,4.35
2022-10-20T09:20:55.769Z,3.92
2022-10-20T09:23:42.239Z,4.10
2022-10-20T09:26:30.829Z,4.00
2022-10-20T09:29:15.417Z,3.72
2022-10-20T09:31:54.049Z,3.97
2022-10-20T09:34:34.204Z,4.30
2022-10-20T09:37:13.804Z,4.60
2022-10-20T09:39:47.680Z,4.28
2022-10-20T09:42:35.459Z,4.03
2022-10-20T09:45:19.273Z,4.10
2022-10-20T09:47:50.693Z,3.67
2022-10-20T09:50:36.700Z,3.83
2022-10-20T09:53:15.659Z,4.18
2022-10-20T09:55:49.253Z,3.78
2022-10-20T09:58:30.300Z,4.13
2022-10-20T10:01:12.096Z,3.80
2022-10-20T10:03:46.468Z,3.78
2022-10-20T10:06:46.132Z,3.90
2022-10-20T10:09:36.516Z,3.50
2022-10-20T10:12:11.534Z,3.95
2022-10-20T10:15:00.633Z,4.00
2022-10-20T10:17:36.371Z,3.78
2022-10-20T10:20:39.598Z,3.58
2022-10-20T10:23:30.397Z,3.50
2022-10-20T10:26:00.637Z,3.20
2022-10-20T10:28:38.830Z,3.70
2022-10-20T10:31:16.343Z,3.83
2022-10-20T10:33:43.320Z,3.05
2022-10-20T10:36:30.746Z,3.08
2022-10-20T10:38:59.205Z,3.13
2022-10-20T10:41:46.061Z,2.63
2022-10-20T10:44:55.063Z,2.95
2022-10-20T10:47:53.174Z,2.53
2022-10-20T10:50:57.009Z,2.25
2022-10-20T10:53:58.179Z,2.83
2022-10-20T10:56:51.593Z,2.78
2022-10-20T10:59:42.980Z,3.00
2022-10-20T11:02:40.264Z,2.22
2022-10-20T11:05:29.170Z,2.70
2022-10-20T11:08:16.677Z,2.42
2022-10-20T11:11:10.847Z,2.35
2022-10-20T11:14:07.862Z,2.53
2022-10-20T11:16:57.945Z,2.42
2022-10-20T11:19:45.808Z,2.40
2022-10-20T11:22:40.507Z,2.42
2022-10-20T11:25:33.035Z,2.10
2022-10-20T11:28:00.517Z,2.25
2022-10-20T11:30:28.098Z,2.00
2022-10-20T11:33:19.221Z,2.60
2022-10-20T11:35:58.614Z,2.33
2022-10-20T11:38:41.902Z,2.63
2022-10-20T11:41:20.078Z,2.60
2022-10-20T11:44:03.454Z,3.00
2022-10-20T11:46:49.857Z,2.90
2022-10-20T11:49:18.118Z,2.28
2022-10-20T11:52:24.103Z,2.25
2022-10-20T11:55:28.267Z,2.47
2022-10-20T11:58:25.300Z,2.28
2022-10-20T12:01:20.713Z,2.40
2022-10-20T12:04:35.250Z,2.38
2022-10-20T12:07:51.526Z,2.33
2022-10-20T12:10:41.853Z,2.20
2022-10-20T12:13:23.609Z,1.85
2022-10-20T12:15:53.647Z,2.08
2022-10-20T12:18:32.150Z,2.00
2022-10-20T12:21:10.935Z,2.53
2022-10-20T12:23:44.111Z,2.10
2022-10-20T12:26:29.482Z,1.88
2022-10-20T12:29:01.417Z,1.80
2022-10-20T12:32:24.627Z,1.70
2022-10-20T12:34:58.501Z,1.92
2022-10-20T12:40:20.480Z,2.00
2022-10-20T12:42:54.375Z,1.75
2022-10-20T12:48:22.393Z,2.20
2022-10-20T12:50:51.879Z,1.95
2022-10-20T12:53:28.496Z,1.85
2022-10-20T12:56:05.701Z,2.10
2022-10-20T12:58:37.180Z,2.42
2022-10-20T13:01:11.785Z,2.63
2022-10-20T13:03:48.975Z,2.10
2022-10-20T13:06:27.402Z,2.50
2022-10-20T13:09:03.877Z,2.08
2022-10-20T13:11:40.468Z,2.08
2022-10-20T13:14:13.415Z,1.90
2022-10-20T13:17:02.822Z,2.20
2022-10-20T13:19:46.372Z,2.03
2022-10-20T13:22:43.055Z,1.90
2022-10-20T13:25:38.898Z,2.10
2022-10-20T13:28:14.643Z,2.03
2022-10-20T13:31:06.516Z,2.13
2022-10-20T13:34:05.967Z,2.20
2022-10-20T13:37:10.013Z,2.40
2022-10-20T13:40:30.920Z,2.15
2022-10-20T13:43:25.813Z,2.40
2022-10-20T13:46:37.316Z,2.42
2022-10-20T13:49:39.641Z,2.30
2022-10-20T13:52:16.157Z,2.75
2022-10-20T13:54:48.325Z,2.47
2022-10-20T13:57:26.141Z,2.22
2022-10-20T14:00:20.921Z,2.60
2022-10-20T14:03:04.562Z,2.13
2022-10-20T14:05:39.117Z,2.42
2022-10-20T14:08:18.847Z,2.20
2022-10-20T14:10:55.577Z,2.05
2022-10-20T14:13:30.031Z,2.45
2022-10-20T14:15:59.869Z,2.45
2022-10-20T14:18:36.129Z,2.58
2022-10-20T14:21:08.533Z,2.20
2022-10-20T14:23:41.828Z,2.25
2022-10-20T14:26:22.679Z,2.30
2022-10-20T14:28:51.615Z,2.45
2022-10-20T14:31:23.427Z,3.28
2022-10-20T14:33:52.664Z,2.22
2022-10-20T14:36:28.660Z,2.40
2022-10-20T14:39:00.727Z,2.00
2022-10-20T14:41:35.864Z,2.20
2022-10-20T14:44:14.714Z,2.22
2022-10-20T14:46:50.410Z,2.00
2022-10-20T14:49:27.920Z,2.40
2022-10-20T14:52:05.730Z,2.28
2022-10-20T14:54:39.017Z,2.75
2022-10-20T14:57:08.713Z,2.33
2022-10-20T15:00:03.829Z,2.38
2022-10-20T15:02:38.573Z,2.40
2022-10-20T15:05:39.846Z,2.38
2022-10-20T15:08:30.864Z,2.35
2022-10-20T15:10:58.926Z,2.10
2022-10-20T15:13:32.437Z,2.22
2022-10-20T15:16:02.602Z,1.92
2022-10-20T15:18:30.550Z,2.22
2022-10-20T15:20:57.606Z,2.75
2022-10-20T15:23:28.093Z,2.08
2022-10-20T15:26:03.059Z,2.22
2022-10-20T15:28:50.473Z,2.92
2022-10-20T15:31:27.663Z,2.65
2022-10-20T15:33:56.856Z,2.55
2022-10-20T15:36:32.999Z,2.92
2022-10-20T15:39:00.682Z,3.00
2022-10-20T15:41:32.069Z,3.47
2022-10-20T15:44:19.298Z,3.30
2022-10-20T15:46:46.580Z,3.65
2022-10-20T15:49:14.063Z,4.15
2022-10-20T15:51:45.499Z,4.15
2022-10-20T15:54:16.309Z,3.40
2022-10-20T15:56:43.631Z,4.30
2022-10-20T15:59:10.487Z,3.40
2022-10-20T16:01:37.852Z,4.03
2022-10-20T16:04:26.165Z,3.50
2022-10-20T16:06:59.014Z,3.25
2022-10-20T16:09:27.300Z,3.55
2022-10-20T16:11:54.280Z,3.25
2022-10-20T16:14:21.214Z,3.35
2022-10-20T16:16:48.199Z,3.20
2022-10-20T16:19:15.000Z,3.20
2022-10-20T16:21:41.786Z,3.20
2022-10-20T16:24:08.859Z,3.30
2022-10-20T16:26:35.701Z,3.80
2022-10-20T16:29:02.458Z,3.50
2022-10-20T16:31:29.491Z,3.50
2022-10-20T16:34:00.235Z,3.50
2022-10-20T16:36:27.087Z,3.55
2022-10-20T16:38:57.515Z,3.72
2022-10-20T16:41:24.620Z,3.63
2022-10-20T16:43:51.519Z,3.50
2022-10-20T16:46:18.356Z,3.70
2022-10-20T16:48:47.835Z,3.90
2022-10-20T16:51:16.736Z,4.38
2022-10-20T16:53:44.331Z,3.85
2022-10-20T16:56:15.285Z,3.72
2022-10-20T17:01:14.117Z,3.83
2022-10-20T17:03:48.037Z,4.07
2022-10-20T17:06:18.318Z,3.58
2022-10-20T17:08:46.060Z,3.78
2022-10-20T17:11:20.549Z,4.15
2022-10-20T17:13:47.424Z,4.55
2022-10-20T17:16:20.080Z,4.25
2022-10-20T17:18:49.438Z,4.50
2022-10-20T17:21:16.507Z,4.47
2022-10-20T17:23:44.438Z,4.63
2022-10-20T17:26:21.372Z,4.80
2022-10-20T17:28:52.135Z,5.13
2022-10-20T17:31:18.926Z,4.40
2022-10-20T17:33:46.559Z,5.03
2022-10-20T17:36:13.821Z,4.78
2022-10-20T17:38:42.233Z,4.15
2022-10-20T17:41:15.513Z,4.57
2022-10-20T17:43:42.486Z,4.40
2022-10-20T17:46:13.807Z,4.65
2022-10-20T17:48:40.941Z,4.68
2022-10-20T17:51:15.087Z,4.40
2022-10-20T17:53:45.546Z,4.35
2022-10-20T17:56:22.630Z,3.90
2022-10-20T17:58:51.910Z,4.13
2022-10-20T18:01:26.315Z,4.50
2022-10-20T18:04:09.066Z,4.30
2022-10-20T18:06:36.598Z,4.03
2022-10-20T18:09:11.425Z,4.32
2022-10-20T18:11:41.431Z,4.05
2022-10-20T18:14:08.215Z,4.22
2022-10-20T18:16:37.939Z,3.78
2022-10-20T18:19:05.778Z,3.83
2022-10-20T18:21:32.868Z,3.67
2022-10-20T18:24:08.011Z,3.45
2022-10-20T18:26:37.134Z,3.70
2022-10-20T18:29:08.502Z,3.38
2022-10-20T18:31:38.824Z,3.90
2022-10-20T18:34:09.460Z,3.70
2022-10-20T18:36:40.456Z,3.88
2022-10-20T18:39:10.750Z,3.80
2022-10-20T18:41:41.035Z,4.30
2022-10-20T18:44:13.860Z,3.97
2022-10-20T18:46:41.557Z,3.55
2022-10-20T18:49:12.070Z,3.90
2022-10-20T18:51:39.129Z,3.42
2022-10-20T18:54:08.602Z,3.60
2022-10-20T18:56:36.486Z,3.83
2022-10-20T18:59:08.645Z,4.28
2022-10-20T19:01:38.996Z,3.67
2022-10-20T19:04:08.427Z,3.58
2022-10-20T19:06:42.228Z,3.70
2022-10-20T19:09:14.462Z,3.97
2022-10-20T19:11:42.096Z,3.88
2022-10-20T19:14:10.194Z,3.50
2022-10-20T19:16:38.341Z,3.42
2022-10-20T19:19:08.023Z,4.10
2022-10-20T19:21:35.754Z,4.82
2022-10-20T19:24:07.549Z,4.57
2022-10-20T19:26:41.968Z,3.90
2022-10-20T19:29:16.182Z,4.20
2022-10-20T19:32:11.607Z,4.43
2022-10-20T19:34:40.931Z,3.75
2022-10-20T19:37:09.510Z,3.67
2022-10-20T19:39:40.916Z,3.97
2022-10-20T19:42:10.262Z,4.18
2022-10-20T19:44:37.934Z,3.92
2022-10-20T19:47:06.243Z,3.90
2022-10-20T19:49:33.209Z,4.30
2022-10-20T19:52:00.544Z,4.85
2022-10-20T19:54:27.596Z,4.20
2022-10-20T19:56:54.419Z,4.28
2022-10-20T19:59:21.888Z,4.57
2022-10-20T20:01:50.129Z,3.78
2022-10-20T20:04:17.046Z,4.05
2022-10-20T20:06:43.969Z,3.80
2022-10-20T20:09:12.199Z,4.15
2022-10-20T20:11:39.232Z,4.20
2022-10-20T20:14:12.029Z,3.95
2022-10-20T20:16:39.438Z,4.18
2022-10-20T20:19:06.727Z,4.13
2022-10-20T20:21:33.610Z,4.22
2022-10-20T20:24:03.857Z,4.75
2022-10-20T20:26:36.568Z,4.10
2022-10-20T20:29:05.582Z,3.72
2022-10-20T20:31:33.470Z,4.03
2022-10-20T20:34:00.312Z,4.00
2022-10-20T20:36:28.126Z,4.03
2022-10-20T20:38:58.148Z,4.00
2022-10-20T20:41:30.846Z,3.83
2022-10-20T20:43:58.405Z,4.10
2022-10-20T20:46:29.226Z,4.20
2022-10-20T20:49:00.528Z,4.18
2022-10-20T20:51:33.898Z,4.10
2022-10-20T20:54:02.694Z,3.72
2022-10-20T20:56:29.598Z,4.22
2022-10-20T20:58:56.307Z,4.18
2022-10-20T21:01:33.960Z,4.18
2022-10-20T21:04:05.453Z,4.18
2022-10-20T21:06:49.397Z,4.05
2022-10-20T21:09:19.377Z,4.30
2022-10-20T21:11:46.093Z,4.45
2022-10-20T21:14:12.846Z,4.00
2022-10-20T21:16:39.647Z,3.92
2022-10-20T21:19:10.727Z,4.80
2022-10-20T21:21:44.420Z,3.58
2022-10-20T21:24:12.737Z,4.60
2022-10-20T21:26:40.611Z,4.38
2022-10-20T21:29:08.580Z,4.03
2022-10-20T21:31:36.305Z,3.85
2022-10-20T21:34:05.435Z,3.75
2022-10-20T21:36:35.315Z,4.15
2022-10-20T21:39:06.188Z,3.75
2022-10-20T21:41:35.878Z,3.60
2022-10-20T21:44:05.173Z,4.30
2022-10-20T21:46:39.705Z,3.97
2022-10-20T21:49:11.920Z,3.67
2022-10-20T21:51:43.365Z,4.05
2022-10-20T21:54:18.698Z,3.80
2022-10-20T21:56:47.033Z,3.72
2022-10-20T21:59:29.530Z,3.72
2022-10-20T22:01:59.744Z,3.58
2022-10-20T22:04:29.415Z,3.90
2022-10-20T22:06:57.192Z,4.30
2022-10-20T22:09:24.156Z,4.38
2022-10-20T22:11:55.371Z,4.30
2022-10-20T22:14:23.485Z,3.67
2022-10-20T22:16:50.406Z,4.13
2022-10-20T22:19:23.019Z,4.18
2022-10-20T22:21:52.734Z,3.83
2022-10-20T22:24:21.879Z,3.80
2022-10-20T22:26:51.570Z,3.97
2022-10-20T22:29:21.903Z,4.60
2022-10-20T22:31:49.017Z,4.63
2022-10-20T22:34:15.853Z,4.28
2022-10-20T22:36:44.331Z,3.78
2022-10-20T22:41:43.419Z,4.35
2022-10-20T22:44:11.043Z,3.67
2022-10-20T22:46:37.746Z,4.60
2022-10-20T22:49:04.664Z,4.88
2022-10-20T22:51:31.407Z,4.00
2022-10-20T22:53:58.981Z,3.88
2022-10-20T22:56:25.752Z,4.00
2022-10-20T22:58:53.895Z,3.83
2022-10-20T23:01:22.989Z,4.25
2022-10-20T23:03:50.106Z,4.13
2022-10-20T23:06:21.269Z,4.30
2022-10-20T23:08:52.603Z,3.75
2022-10-20T23:11:20.556Z,3.95
2022-10-20T23:13:48.187Z,3.58
2022-10-20T23:16:15.154Z,3.88
2022-10-20T23:18:42.611Z,4.25
2022-10-20T23:21:09.991Z,4.85
2022-10-20T23:23:37.565Z,4.70
2022-10-20T23:26:06.927Z,4.50
2022-10-20T23:28:35.335Z,4.10
2022-10-20T23:31:17.804Z,3.97
2022-10-20T23:33:46.896Z,3.63
2022-10-20T23:36:15.718Z,4.20
2022-10-20T23:38:43.665Z,3.90
2022-10-20T23:41:10.851Z,3.53
2022-10-20T23:43:37.606Z,3.95
2022-10-20T23:46:04.661Z,4.07
2022-10-20T23:48:31.412Z,4.50
2022-10-20T23:50:58.343Z,3.85
2022-10-20T23:53:25.612Z,3.80
2022-10-20T23:55:52.650Z,4.07
2022-10-20T23:58:23.165Z,3.80
